createdAt,value
2023-01-03T00:02:39.711Z,13.67
2023-01-03T00:05:42.824Z,13.23
2023-01-03T00:08:44.855Z,13.17
2023-01-03T00:12:07.613Z,16.53
2023-01-03T00:15:09.930Z,15.57
2023-01-03T00:18:11.641Z,18.57
2023-01-03T00:21:13.535Z,12.97
2023-01-03T00:24:16.113Z,13.10
2023-01-03T00:27:17.819Z,13.37
2023-01-03T00:30:19.616Z,14.70
2023-01-03T00:33:21.345Z,14.97
2023-01-03T00:36:23.074Z,14.00
2023-01-03T00:39:25.598Z,15.00
2023-01-03T00:42:27.458Z,17.50
2023-01-03T00:45:35.035Z,16.07
2023-01-03T00:48:37.523Z,11.17
2023-01-03T00:51:40.820Z,15.53
2023-01-03T00:54:42.582Z,13.73
2023-01-03T00:57:44.482Z,14.50
2023-01-03T01:00:46.265Z,14.67
2023-01-03T01:03:52.375Z,18.90
2023-01-03T01:06:57.282Z,19.37
2023-01-03T01:09:58.948Z,14.70
2023-01-03T01:13:00.710Z,19.80
2023-01-03T01:16:05.083Z,14.43
2023-01-03T01:19:06.809Z,23.90
2023-01-03T01:22:09.565Z,14.40
2023-01-03T01:25:11.228Z,19.30
2023-01-03T01:28:12.938Z,19.00
2023-01-03T01:31:17.589Z,18.23
2023-01-03T01:34:19.596Z,16.63
2023-01-03T01:37:21.275Z,17.73
2023-01-03T01:40:23.010Z,18.03
2023-01-03T01:43:43.783Z,15.00
2023-01-03T01:46:45.585Z,19.23
2023-01-03T01:49:49.667Z,14.30
2023-01-03T01:52:56.704Z,18.53
2023-01-03T01:56:05.905Z,19.40
2023-01-03T01:59:09.627Z,16.60
2023-01-03T02:02:13.072Z,14.40
2023-01-03T02:05:16.775Z,20.50
2023-01-03T02:08:18.925Z,16.33
2023-01-03T02:11:35.674Z,24.97
2023-01-03T02:14:52.297Z,16.70
2023-01-03T02:18:18.780Z,23.67
2023-01-03T02:21:52.783Z,23.20
2023-01-03T02:25:15.491Z,15.93
2023-01-03T02:28:44.916Z,16.40
2023-01-03T02:31:52.792Z,14.40
2023-01-03T02:35:21.099Z,17.07
2023-01-03T02:38:32.511Z,14.70
2023-01-03T02:41:45.536Z,14.93
2023-01-03T02:45:12.873Z,18.90
2023-01-03T02:48:57.306Z,16.07
2023-01-03T02:52:03.893Z,16.60
2023-01-03T02:55:16.081Z,16.10
2023-01-03T02:58:22.921Z,13.13
2023-01-03T03:01:26.059Z,11.23
2023-01-03T03:04:28.571Z,13.13
2023-01-03T03:07:35.087Z,13.97
2023-01-03T03:10:58.126Z,13.63
2023-01-03T03:14:12.569Z,25.57
2023-01-03T03:17:19.402Z,18.03
2023-01-03T03:20:39.656Z,16.10
2023-01-03T03:24:02.971Z,13.93
2023-01-03T03:27:28.797Z,20.57
2023-01-03T03:30:35.028Z,15.40
2023-01-03T03:33:44.278Z,16.30
2023-01-03T03:37:04.128Z,12.43
2023-01-03T03:40:25.761Z,13.83
2023-01-03T03:43:50.734Z,18.83
2023-01-03T03:47:04.176Z,13.90
2023-01-03T03:50:37.738Z,17.70
2023-01-03T03:53:43.149Z,21.33
2023-01-03T03:56:49.913Z,20.20
2023-01-03T03:59:55.406Z,18.83
2023-01-03T04:02:59.189Z,20.93
2023-01-03T04:06:05.768Z,19.37
2023-01-03T04:09:08.728Z,20.80
2023-01-03T04:12:10.484Z,20.20
2023-01-03T04:15:12.590Z,20.10
2023-01-03T04:18:14.308Z,21.93
2023-01-03T04:21:20.704Z,19.00
2023-01-03T04:24:23.155Z,20.97
2023-01-03T04:27:24.873Z,18.47
2023-01-03T04:30:26.611Z,19.10
2023-01-03T04:33:28.258Z,21.47
2023-01-03T04:36:29.983Z,21.77
2023-01-03T04:39:31.784Z,20.30
2023-01-03T04:42:52.045Z,18.77
2023-01-03T04:45:53.911Z,20.17
2023-01-03T04:48:56.025Z,15.23
2023-01-03T04:51:58.096Z,17.83
2023-01-03T04:54:59.792Z,17.40
2023-01-03T04:58:01.463Z,24.47
2023-01-03T05:01:05.020Z,14.33
2023-01-03T05:04:08.400Z,23.10
2023-01-03T05:07:10.202Z,17.77
2023-01-03T05:10:11.909Z,17.93
2023-01-03T05:13:13.551Z,16.27
2023-01-03T05:16:15.671Z,16.47
2023-01-03T05:19:19.347Z,23.47
2023-01-03T05:22:39.922Z,22.10
2023-01-03T05:25:50.887Z,31.27
2023-01-03T05:28:54.434Z,22.60
2023-01-03T05:31:56.528Z,29.87
2023-01-03T05:34:58.258Z,25.60
2023-01-03T05:37:59.933Z,26.37
2023-01-03T05:41:01.626Z,27.93
2023-01-03T05:44:03.398Z,29.50
2023-01-03T05:47:05.578Z,31.00
2023-01-03T05:50:07.640Z,28.17
2023-01-03T05:53:09.430Z,28.67
2023-01-03T05:56:11.111Z,33.37
2023-01-03T05:59:13.376Z,28.77
2023-01-03T06:02:15.208Z,26.90
2023-01-03T06:05:17.099Z,26.43
2023-01-03T06:08:18.754Z,25.57
2023-01-03T06:11:21.018Z,24.57
2023-01-03T06:14:22.807Z,22.27
2023-01-03T06:17:43.277Z,24.27
2023-01-03T06:20:44.951Z,20.53
2023-01-03T06:23:50.111Z,20.63
2023-01-03T06:26:51.794Z,19.40
2023-01-03T06:29:53.525Z,18.20
2023-01-03T06:32:55.802Z,20.50
2023-01-03T06:35:57.664Z,25.33
2023-01-03T06:38:59.330Z,26.73
2023-01-03T06:42:23.901Z,25.67
2023-01-03T06:45:44.392Z,17.93
2023-01-03T06:49:05.438Z,18.30
2023-01-03T06:52:32.608Z,16.80
2023-01-03T06:55:34.273Z,17.73
2023-01-03T06:58:36.607Z,13.70
2023-01-03T07:01:39.000Z,17.57
2023-01-03T07:04:40.816Z,22.53
2023-01-03T07:07:42.501Z,16.53
2023-01-03T07:10:44.186Z,26.07
2023-01-03T07:14:02.329Z,18.97
2023-01-03T07:17:03.978Z,20.83
2023-01-03T07:20:06.140Z,17.37
2023-01-03T07:23:07.888Z,16.33
2023-01-03T07:26:09.571Z,16.97
2023-01-03T07:29:11.842Z,20.63
2023-01-03T07:32:13.565Z,19.90
2023-01-03T07:35:15.351Z,17.47
2023-01-03T07:38:17.442Z,17.33
2023-01-03T07:41:19.298Z,17.17
2023-01-03T07:44:20.981Z,17.13
2023-01-03T07:47:22.664Z,21.07
2023-01-03T07:50:24.353Z,15.53
2023-01-03T07:53:26.655Z,15.53
2023-01-03T07:56:28.369Z,15.53
2023-01-03T07:59:30.038Z,14.83
2023-01-03T08:02:31.858Z,13.13
2023-01-03T08:05:35.603Z,21.87
2023-01-03T08:08:37.864Z,19.67
2023-01-03T08:11:58.780Z,21.13
2023-01-03T08:15:00.467Z,14.77
2023-01-03T08:18:02.188Z,15.87
2023-01-03T08:21:04.384Z,21.83
2023-01-03T08:24:06.373Z,14.37
2023-01-03T08:27:08.085Z,15.37
2023-01-03T08:30:10.413Z,14.93
2023-01-03T08:33:14.995Z,20.90
2023-01-03T08:36:17.338Z,13.87
2023-01-03T08:39:27.626Z,13.43
2023-01-03T08:42:29.747Z,12.37
2023-01-03T08:45:31.708Z,16.47
2023-01-03T08:48:34.470Z,15.77
2023-01-03T08:51:36.189Z,14.37
2023-01-03T08:54:39.290Z,17.17
2023-01-03T08:57:40.990Z,14.97
2023-01-03T09:00:42.664Z,12.57
2023-01-03T09:03:44.430Z,17.97
2023-01-03T09:06:46.195Z,15.73
2023-01-03T09:09:47.902Z,14.53
2023-01-03T09:12:49.704Z,14.13
2023-01-03T09:15:51.432Z,14.83
2023-01-03T09:18:53.109Z,15.47
2023-01-03T09:21:55.275Z,12.47
2023-01-03T09:24:57.007Z,13.47
2023-01-03T09:27:58.787Z,10.43
2023-01-03T09:31:00.826Z,19.13
2023-01-03T09:34:04.575Z,21.00
2023-01-03T09:37:06.301Z,12.70
2023-01-03T09:40:08.825Z,15.17
2023-01-03T09:43:25.796Z,9.93
2023-01-03T09:46:29.401Z,18.97
2023-01-03T09:49:31.385Z,17.10
2023-01-03T09:52:52.176Z,18.60
2023-01-03T09:56:18.201Z,14.27
2023-01-03T09:59:38.687Z,16.47
2023-01-03T10:02:59.109Z,10.23
2023-01-03T10:06:10.893Z,17.33
2023-01-03T10:09:23.919Z,11.63
2023-01-03T10:12:40.562Z,10.47
2023-01-03T10:16:11.325Z,10.87
2023-01-03T10:19:19.118Z,10.77
2023-01-03T10:22:25.949Z,11.97
2023-01-03T10:25:29.171Z,9.27
2023-01-03T10:28:40.952Z,10.90
2023-01-03T10:32:14.644Z,13.97
2023-01-03T10:35:25.082Z,7.27
2023-01-03T10:38:26.983Z,7.07
2023-01-03T10:41:48.862Z,5.50
2023-01-03T10:45:00.987Z,8.67
2023-01-03T10:48:02.793Z,6.67
2023-01-03T10:51:25.412Z,11.37
2023-01-03T10:54:31.716Z,6.00
2023-01-03T10:57:42.664Z,7.00
2023-01-03T11:00:44.464Z,5.50
2023-01-03T11:04:06.130Z,5.33
2023-01-03T11:07:13.564Z,4.50
2023-01-03T11:10:18.288Z,4.47
2023-01-03T11:13:40.406Z,10.40
2023-01-03T11:16:42.193Z,9.40
2023-01-03T11:19:44.050Z,9.07
2023-01-03T11:22:54.051Z,11.03
2023-01-03T11:25:58.771Z,6.67
2023-01-03T11:29:00.829Z,15.07
2023-01-03T11:32:39.792Z,10.73
2023-01-03T11:35:51.795Z,11.33
2023-01-03T11:39:16.360Z,10.13
2023-01-03T11:42:34.561Z,16.37
2023-01-03T11:45:58.656Z,37.00
2023-01-03T11:49:17.585Z,24.20
2023-01-03T11:52:26.281Z,63.63
2023-01-03T11:55:42.422Z,30.23
2023-01-03T11:59:06.767Z,15.33
2023-01-03T12:02:54.101Z,11.63
2023-01-03T12:06:23.698Z,11.73
2023-01-03T12:10:06.462Z,11.73
2023-01-03T12:13:38.894Z,7.60
2023-01-03T12:17:00.144Z,11.07
2023-01-03T12:20:24.292Z,6.73
2023-01-03T12:23:34.840Z,7.03
2023-01-03T12:26:41.756Z,11.53
2023-01-03T12:30:06.842Z,7.23
2023-01-03T12:33:31.017Z,7.37
2023-01-03T12:37:00.350Z,7.80
2023-01-03T12:40:10.659Z,9.47
2023-01-03T12:43:38.759Z,6.20
2023-01-03T12:46:49.188Z,9.30
2023-01-03T12:50:04.130Z,2.97
2023-01-03T12:53:23.949Z,2.67
2023-01-03T12:56:34.778Z,6.93
2023-01-03T12:59:56.446Z,8.57
2023-01-03T13:03:15.259Z,6.57
2023-01-03T13:06:23.644Z,4.80
2023-01-03T13:09:38.729Z,2.87
2023-01-03T13:12:52.822Z,6.70
2023-01-03T13:15:54.709Z,7.87
2023-01-03T13:19:16.381Z,8.40
2023-01-03T13:22:41.382Z,2.83
2023-01-03T13:25:44.103Z,5.43
2023-01-03T13:28:45.893Z,4.87
2023-01-03T13:32:04.193Z,2.73
2023-01-03T13:35:05.826Z,8.93
2023-01-03T13:38:29.814Z,8.97
2023-01-03T13:41:36.276Z,10.40
2023-01-03T13:44:38.020Z,4.50
2023-01-03T13:47:47.255Z,8.10
2023-01-03T13:51:16.148Z,4.13
2023-01-03T13:54:17.781Z,2.50
2023-01-03T13:57:34.878Z,8.73
2023-01-03T14:00:40.712Z,4.20
2023-01-03T14:04:04.020Z,5.30
2023-01-03T14:07:36.649Z,6.03
2023-01-03T14:11:12.597Z,3.07
2023-01-03T14:14:17.791Z,7.67
2023-01-03T14:17:27.136Z,6.37
2023-01-03T14:20:34.007Z,8.33
2023-01-03T14:27:16.952Z,6.60
2023-01-03T14:30:22.011Z,5.63
2023-01-03T14:33:50.950Z,5.80
2023-01-03T14:36:52.650Z,10.73
2023-01-03T14:39:58.829Z,14.50
2023-01-03T14:43:04.634Z,5.13
2023-01-03T14:46:11.189Z,5.00
2023-01-03T14:49:23.999Z,1.33
2023-01-03T14:52:31.289Z,4.17
2023-01-03T14:55:33.669Z,2.73
2023-01-03T14:58:40.603Z,3.50
2023-01-03T15:01:44.206Z,4.70
2023-01-03T15:04:54.773Z,2.83
2023-01-03T15:08:25.761Z,5.17
2023-01-03T15:11:55.913Z,5.73
2023-01-03T15:14:57.927Z,4.30
2023-01-03T15:18:03.380Z,5.20
2023-01-03T15:21:06.191Z,5.03
2023-01-03T15:24:22.610Z,5.67
2023-01-03T15:27:37.708Z,2.20
2023-01-03T15:30:49.543Z,4.73
2023-01-03T15:34:16.901Z,2.17
2023-01-03T15:37:23.856Z,3.13
2023-01-03T15:40:25.623Z,2.27
2023-01-03T15:43:36.395Z,4.90
2023-01-03T15:46:43.285Z,2.47
2023-01-03T15:49:49.028Z,6.33
2023-01-03T15:52:50.699Z,1.37
2023-01-03T15:55:56.379Z,5.73
2023-01-03T15:58:59.627Z,10.37
2023-01-03T16:02:02.217Z,3.73
2023-01-03T16:05:04.323Z,4.77
2023-01-03T16:08:26.627Z,4.10
2023-01-03T16:11:33.663Z,2.17
2023-01-03T16:14:38.466Z,4.07
2023-01-03T16:17:40.436Z,9.80
2023-01-03T16:20:42.194Z,13.67
2023-01-03T16:23:44.121Z,7.13
2023-01-03T16:26:46.738Z,1.33
2023-01-03T16:29:48.771Z,5.93
2023-01-03T16:32:50.515Z,7.10
2023-01-03T16:35:52.642Z,3.47
2023-01-03T16:38:54.339Z,4.83
2023-01-03T16:42:14.277Z,2.33
2023-01-03T16:45:17.293Z,4.37
2023-01-03T16:48:23.140Z,1.87
2023-01-03T16:51:31.115Z,2.47
2023-01-03T16:54:34.391Z,4.23
2023-01-03T16:57:36.040Z,4.53
2023-01-03T17:00:37.747Z,4.73
2023-01-03T17:03:42.259Z,3.37
2023-01-03T17:06:44.651Z,2.57
2023-01-03T17:09:48.146Z,1.93
2023-01-03T17:12:49.797Z,3.13
2023-01-03T17:15:51.607Z,45.67
2023-01-03T17:18:53.696Z,1.97
2023-01-03T17:21:55.687Z,5.17
2023-01-03T17:24:57.401Z,2.77
2023-01-03T17:28:00.162Z,2.07
2023-01-03T17:31:01.836Z,2.40
2023-01-03T17:34:17.256Z,2.87
2023-01-03T17:37:21.049Z,3.57
2023-01-03T17:40:32.911Z,2.43
2023-01-03T17:43:35.532Z,3.60
2023-01-03T17:46:55.812Z,2.70
2023-01-03T17:49:57.506Z,3.57
2023-01-03T17:53:01.592Z,1.40
2023-01-03T17:56:03.348Z,1.93
2023-01-03T17:59:05.040Z,8.37
2023-01-03T18:02:33.288Z,6.50
2023-01-03T18:05:35.323Z,5.07
2023-01-03T18:08:37.045Z,7.53
2023-01-03T18:11:38.784Z,3.57
2023-01-03T18:14:40.506Z,3.57
2023-01-03T18:17:42.222Z,3.33
2023-01-03T18:20:44.427Z,4.90
2023-01-03T18:23:46.296Z,5.33
2023-01-03T18:26:51.849Z,3.80
2023-01-03T18:29:53.817Z,1.63
2023-01-03T18:32:55.568Z,2.10
2023-01-03T18:35:57.464Z,3.03
2023-01-03T18:39:05.763Z,4.23
2023-01-03T18:42:30.720Z,4.33
2023-01-03T18:45:32.977Z,7.07
2023-01-03T18:48:34.640Z,5.53
2023-01-03T18:51:36.316Z,3.50
2023-01-03T18:54:38.802Z,11.03
2023-01-03T18:57:40.481Z,5.23
2023-01-03T19:00:42.240Z,4.97
2023-01-03T19:03:44.221Z,5.03
2023-01-03T19:06:49.255Z,3.27
2023-01-03T19:09:51.321Z,4.07
2023-01-03T19:12:56.339Z,3.20
2023-01-03T19:15:58.199Z,5.80
2023-01-03T19:19:00.425Z,7.03
2023-01-03T19:22:05.845Z,4.30
2023-01-03T19:25:13.120Z,1.43
2023-01-03T19:28:18.175Z,4.20
2023-01-03T19:31:19.849Z,7.20
2023-01-03T19:34:24.372Z,1.40
2023-01-03T19:37:26.104Z,8.87
2023-01-03T19:40:31.848Z,5.23
2023-01-03T19:43:33.923Z,4.20
2023-01-03T19:46:35.643Z,7.03
2023-01-03T19:49:37.346Z,9.03
2023-01-03T19:52:39.016Z,2.30
2023-01-03T19:55:47.375Z,2.40
2023-01-03T19:58:49.704Z,2.10
2023-01-03T20:02:23.390Z,1.80
2023-01-03T20:05:26.478Z,11.63
2023-01-03T20:08:28.261Z,7.97
2023-01-03T20:11:29.946Z,2.73
2023-01-03T20:14:31.651Z,5.23
2023-01-03T20:17:33.350Z,7.47
2023-01-03T20:20:35.229Z,4.17
2023-01-03T20:23:42.258Z,6.53
2023-01-03T20:26:43.958Z,4.87
2023-01-03T20:29:45.637Z,7.23
2023-01-03T20:32:47.396Z,5.83
2023-01-03T20:36:10.191Z,7.17
2023-01-03T20:39:36.016Z,6.23
2023-01-03T20:42:37.697Z,4.37
2023-01-03T20:45:40.534Z,4.13
2023-01-03T20:48:42.298Z,8.10
2023-01-03T20:51:44.004Z,4.70
2023-01-03T20:54:45.683Z,6.33
2023-01-03T20:57:47.593Z,7.90
2023-01-03T21:00:49.320Z,7.73
2023-01-03T21:03:51.165Z,3.60
2023-01-03T21:06:52.962Z,1.47
2023-01-03T21:09:54.630Z,4.80
2023-01-03T21:12:56.857Z,2.10
2023-01-03T21:15:58.642Z,5.77
2023-01-03T21:19:15.890Z,5.67
2023-01-03T21:22:20.142Z,2.87
2023-01-03T21:25:27.796Z,5.93
2023-01-03T21:28:29.446Z,3.13
2023-01-03T21:31:33.365Z,1.53
2023-01-03T21:34:35.098Z,1.67
2023-01-03T21:37:36.750Z,4.67
2023-01-03T21:40:38.463Z,4.37
2023-01-03T21:43:40.126Z,3.13
2023-01-03T21:46:42.189Z,8.37
2023-01-03T21:49:43.878Z,5.53
2023-01-03T21:52:45.722Z,11.33
2023-01-03T21:55:47.781Z,5.60
2023-01-03T21:58:49.912Z,7.57
2023-01-03T22:02:10.422Z,2.73
2023-01-03T22:05:12.169Z,3.53
2023-01-03T22:08:13.851Z,3.50
2023-01-03T22:11:15.578Z,4.43
2023-01-03T22:14:17.313Z,9.10
2023-01-03T22:17:19.035Z,6.10
2023-01-03T22:20:24.276Z,5.10
2023-01-03T22:23:25.924Z,2.17
2023-01-03T22:26:32.432Z,2.97
2023-01-03T22:29:36.040Z,5.90
2023-01-03T22:32:37.708Z,2.93
2023-01-03T22:35:39.363Z,2.93
2023-01-03T22:38:41.739Z,4.37
2023-01-03T22:41:43.435Z,3.67
2023-01-03T22:44:45.251Z,6.50
2023-01-03T22:47:46.917Z,3.13
2023-01-03T22:50:48.586Z,2.93
2023-01-03T22:53:50.225Z,2.93
2023-01-03T22:56:54.149Z,3.47
2023-01-03T22:59:55.856Z,6.77
2023-01-03T23:02:57.590Z,4.00
2023-01-03T23:06:07.035Z,1.90
2023-01-03T23:09:08.788Z,2.27
2023-01-03T23:12:30.140Z,2.20
2023-01-03T23:15:32.370Z,5.60
2023-01-03T23:18:34.080Z,2.40
2023-01-03T23:21:36.360Z,2.13
2023-01-03T23:24:38.030Z,6.10
2023-01-03T23:27:39.718Z,4.83
2023-01-03T23:30:41.446Z,4.80
2023-01-03T23:33:43.151Z,2.97
2023-01-03T23:36:44.933Z,5.57
2023-01-03T23:39:46.632Z,3.07
2023-01-03T23:42:48.337Z,5.83
2023-01-03T23:45:50.159Z,3.40
2023-01-03T23:48:56.745Z,5.17
2023-01-03T23:51:58.455Z,3.33
2023-01-03T23:55:03.790Z,2.47
2023-01-03T23:58:08.712Z,2.37
